createdAt,value
2023-02-27T00:02:34.661Z,78.67
2023-02-27T00:12:56.118Z,79.88
2023-02-27T00:23:17.541Z,79.86
2023-02-27T00:33:38.910Z,79.44
2023-02-27T00:44:00.294Z,80.53
2023-02-27T00:54:21.673Z,80.47
2023-02-27T01:04:43.069Z,80.46
2023-02-27T01:15:05.792Z,81.00
2023-02-27T01:25:27.241Z,81.22
2023-02-27T01:35:48.682Z,81.43
2023-02-27T01:46:10.084Z,81.37
2023-02-27T01:56:32.026Z,81.48
2023-02-27T02:07:16.695Z,80.67
2023-02-27T02:17:40.224Z,81.88
2023-02-27T02:28:20.426Z,81.71
2023-02-27T02:38:50.790Z,81.33
2023-02-27T02:49:22.937Z,81.69
2023-02-27T02:59:55.338Z,80.54
2023-02-27T03:10:16.805Z,81.03
2023-02-27T03:20:41.222Z,82.11
2023-02-27T03:31:22.553Z,81.45
2023-02-27T03:41:52.274Z,80.33
2023-02-27T03:52:13.654Z,81.14
2023-02-27T04:02:36.351Z,81.69
2023-02-27T04:13:06.847Z,81.72
2023-02-27T04:23:38.417Z,81.38
2023-02-27T04:34:04.862Z,82.21
2023-02-27T04:44:26.959Z,81.34
2023-02-27T04:54:54.541Z,82.11
2023-02-27T05:05:19.028Z,82.66
2023-02-27T05:15:43.948Z,83.22
2023-02-27T05:26:11.461Z,82.62
2023-02-27T05:37:02.151Z,83.85
2023-02-27T05:47:26.936Z,84.14
2023-02-27T05:57:54.614Z,84.70
2023-02-27T06:08:16.110Z,84.64
2023-02-27T06:18:37.726Z,84.86
2023-02-27T06:28:59.913Z,85.27
2023-02-27T06:39:21.281Z,85.27
2023-02-27T06:49:42.659Z,85.22
2023-02-27T07:00:04.846Z,85.00
2023-02-27T07:10:26.601Z,86.09
2023-02-27T07:20:49.891Z,86.16
2023-02-27T07:31:11.270Z,85.66
2023-02-27T07:41:32.714Z,85.49
2023-02-27T07:51:54.111Z,85.17
2023-02-27T08:02:15.624Z,84.79
2023-02-27T08:12:37.106Z,84.69
2023-02-27T08:22:58.493Z,84.81
2023-02-27T08:33:19.911Z,83.54
2023-02-27T08:43:41.286Z,83.15
2023-02-27T08:54:03.552Z,82.75
2023-02-27T09:04:24.984Z,81.26
2023-02-27T09:14:46.391Z,79.86
2023-02-27T09:25:07.922Z,79.09
2023-02-27T09:35:29.303Z,78.91
2023-02-27T09:45:54.375Z,78.02
2023-02-27T09:56:35.541Z,77.11
2023-02-27T10:07:11.945Z,74.63
2023-02-27T10:17:39.550Z,73.88
2023-02-27T10:28:09.096Z,74.86
2023-02-27T10:38:37.303Z,73.38
2023-02-27T10:49:00.292Z,71.79
2023-02-27T10:59:38.507Z,70.86
2023-02-27T11:10:20.255Z,70.81
2023-02-27T11:20:43.533Z,68.73
2023-02-27T11:31:25.478Z,67.17
2023-02-27T11:41:46.970Z,68.43
2023-02-27T11:52:23.924Z,68.96
2023-02-27T12:02:55.355Z,67.63
2023-02-27T12:13:20.133Z,68.19
2023-02-27T12:23:50.772Z,69.83
2023-02-27T12:34:21.272Z,67.28
2023-02-27T12:44:42.723Z,68.07
2023-02-27T12:55:07.174Z,66.52
2023-02-27T13:05:47.420Z,67.50
2023-02-27T13:16:27.801Z,68.21
2023-02-27T13:26:55.310Z,67.18
2023-02-27T13:37:16.746Z,66.22
2023-02-27T13:47:47.460Z,65.43
2023-02-27T13:58:15.612Z,66.79
2023-02-27T14:08:46.538Z,67.06
2023-02-27T14:19:22.329Z,66.01
2023-02-27T14:29:45.434Z,67.19
2023-02-27T14:40:07.147Z,67.96
2023-02-27T14:50:28.574Z,68.38
2023-02-27T15:01:03.372Z,67.21
2023-02-27T15:11:25.053Z,67.24
2023-02-27T15:21:49.837Z,69.12
2023-02-27T15:32:25.027Z,67.06
2023-02-27T15:42:47.037Z,67.82
2023-02-27T15:53:08.429Z,67.46
2023-02-27T16:03:33.056Z,67.83
2023-02-27T16:13:55.447Z,68.15
2023-02-27T16:24:29.851Z,69.76
2023-02-27T16:34:51.548Z,68.74
2023-02-27T16:45:20.560Z,68.25
2023-02-27T16:55:43.474Z,68.65
2023-02-27T17:06:05.093Z,69.18
2023-02-27T17:16:26.768Z,70.62
2023-02-27T17:26:48.716Z,69.60
2023-02-27T17:37:10.755Z,70.94
2023-02-27T17:47:32.782Z,70.08
2023-02-27T17:57:54.178Z,67.29
2023-02-27T18:08:15.521Z,70.94
2023-02-27T18:18:37.733Z,71.37
2023-02-27T18:29:00.610Z,71.98
2023-02-27T18:39:22.860Z,72.07
2023-02-27T18:49:44.470Z,70.05
2023-02-27T19:00:06.558Z,73.70
2023-02-27T19:10:27.916Z,70.56
2023-02-27T19:20:49.276Z,74.03
2023-02-27T19:31:12.723Z,73.41
2023-02-27T19:41:34.157Z,73.89
2023-02-27T19:51:55.640Z,74.35
2023-02-27T20:02:17.029Z,74.24
2023-02-27T20:12:38.570Z,74.45
2023-02-27T20:23:00.129Z,73.20
2023-02-27T20:33:21.482Z,73.27
2023-02-27T20:43:43.550Z,74.55
2023-02-27T20:54:06.582Z,71.89
2023-02-27T21:04:47.194Z,73.31
2023-02-27T21:15:08.934Z,74.10
2023-02-27T21:25:30.352Z,74.48
2023-02-27T21:35:51.789Z,73.84
2023-02-27T21:46:13.536Z,73.49
2023-02-27T21:56:34.914Z,74.05
2023-02-27T22:06:56.249Z,75.23
2023-02-27T22:17:17.672Z,73.96
2023-02-27T22:27:39.016Z,74.63
2023-02-27T22:38:00.385Z,73.88
2023-02-27T22:48:23.613Z,74.50
2023-02-27T22:58:45.234Z,75.39
2023-02-27T23:09:08.234Z,74.66
2023-02-27T23:19:30.001Z,75.54
2023-02-27T23:29:51.327Z,74.96
2023-02-27T23:40:13.023Z,75.63
2023-02-27T23:50:36.383Z,75.74
